Time;durP1;ratioP1;P1;durP2;ratioP2;P2;SDS_P1;SDS_P2;PMS_P1;PMS_P2;Temp;Humidity;BMP_temperature;BMP_pressure;BME280_temperature;BME280_humidity;BME280_pressure;Samples;Min_cycle;Max_cycle;Signal;HPM_P1;HPM_P2
2022/02/16 00:00:09;;;;;;;1.17;0.50;;;0.80;1.40;;;1.56;100.00;95262.22;646458;212;31547;-76
2022/02/16 00:02:51;;;;;;;1.10;0.40;;;1.10;1.40;;;1.53;100.00;95261.07;647315;212;31529;-74
2022/02/16 00:05:36;;;;;;;0.80;0.70;;;1.10;1.40;;;1.57;100.00;95261.75;647325;216;31501;-75
2022/02/16 00:08:14;;;;;;;1.10;0.75;;;1.20;1.40;;;1.64;100.00;95259.73;647890;216;31572;-76
2022/02/16 00:10:56;;;;;;;0.55;0.55;;;1.20;1.40;;;1.87;100.00;95261.54;647202;216;32139;-75
2022/02/16 00:13:38;;;;;;;0.40;0.30;;;1.70;1.40;;;2.05;100.00;95250.05;647327;212;31662;-76
2022/02/16 00:16:20;;;;;;;0.60;0.30;;;1.80;1.40;;;2.08;100.00;95251.41;647076;212;32081;-76
2022/02/16 00:19:01;;;;;;;1.50;0.70;;;1.80;1.40;;;2.11;100.00;95244.69;645413;212;42146;-75
2022/02/16 00:21:43;;;;;;;0.40;0.30;;;1.70;1.40;;;2.04;100.00;95250.50;647225;216;31553;-76
2022/02/16 00:24:25;;;;;;;0.73;0.60;;;1.60;1.40;;;1.97;100.00;95237.62;648069;212;31506;-76
2022/02/16 00:27:07;;;;;;;0.70;0.50;;;1.60;1.40;;;1.99;100.00;95238.00;646533;212;31680;-76
2022/02/16 00:29:51;;;;;;;0.60;0.40;;;1.70;1.40;;;2.08;100.00;95237.14;646979;216;31598;-75
2022/02/16 00:32:33;;;;;;;2.10;0.60;;;1.80;1.40;;;2.11;100.00;95236.36;647985;216;32035;-77
2022/02/16 00:35:51;;;;;;;1.10;0.80;;;1.90;1.40;;;2.20;100.00;95236.04;621849;222;42473;-75
2022/02/16 00:38:33;;;;;;;0.40;0.30;;;1.90;1.40;;;2.19;100.00;95234.00;647732;216;31460;-75
2022/02/16 00:41:17;;;;;;;3.50;0.70;;;1.90;1.40;;;2.25;100.00;95228.19;647340;212;32153;-76
2022/02/16 00:43:59;;;;;;;1.00;0.65;;;1.90;1.40;;;2.33;100.00;95223.16;648459;216;31997;-75
2022/02/16 00:46:41;;;;;;;0.50;0.40;;;2.10;1.40;;;2.37;100.00;95216.39;647640;216;31506;-75
2022/02/16 00:49:23;;;;;;;0.40;0.20;;;2.10;1.40;;;2.32;100.00;95216.57;646922;216;42129;-76
2022/02/16 00:52:05;;;;;;;0.50;0.40;;;2.00;1.40;;;2.32;100.00;95215.88;647074;214;31545;-76
2022/02/16 00:54:47;;;;;;;0.50;0.20;;;2.00;1.40;;;2.35;100.00;95217.28;647605;212;31493;-76
2022/02/16 00:57:28;;;;;;;0.70;0.70;;;2.10;1.40;;;2.36;100.00;95221.63;646806;212;31501;-76
2022/02/16 01:00:12;;;;;;;0.50;0.30;;;2.10;1.40;;;2.46;100.00;95214.48;647102;216;31531;-76
2022/02/16 01:02:52;;;;;;;0.40;0.22;;;2.10;1.40;;;2.51;100.00;95209.59;646224;216;31467;-76
2022/02/16 01:05:34;;;;;;;0.80;0.50;;;2.20;1.40;;;2.56;100.00;95208.92;646845;212;42212;-76
2022/02/16 01:08:19;;;;;;;0.70;0.60;;;2.20;1.40;;;2.54;100.00;95207.52;647342;216;34028;-75
2022/02/16 01:11:01;;;;;;;0.60;0.50;;;2.20;1.40;;;2.57;100.00;95203.09;646949;216;31471;-76
2022/02/16 01:13:43;;;;;;;0.70;0.50;;;2.20;1.40;;;2.42;100.00;95208.48;647985;212;31471;-76
2022/02/16 01:16:24;;;;;;;0.40;0.30;;;2.00;1.40;;;2.39;100.00;95204.63;646693;212;31605;-76
2022/02/16 01:19:06;;;;;;;0.90;0.30;;;2.00;1.40;;;2.35;100.00;95202.09;646526;212;31526;-76
2022/02/16 01:21:48;;;;;;;0.40;0.25;;;1.90;1.40;;;2.41;100.00;95192.77;647502;216;31621;-77
2022/02/16 01:24:30;;;;;;;0.40;0.30;;;2.10;1.40;;;2.55;100.00;95193.94;647637;213;31469;-76
2022/02/16 01:27:12;;;;;;;0.43;0.28;;;2.30;1.40;;;2.41;100.00;95198.75;647936;213;31460;-76
2022/02/16 01:29:53;;;;;;;0.40;0.20;;;2.00;1.40;;;2.38;100.00;95197.30;646680;212;31509;-76
2022/02/16 01:32:35;;;;;;;0.40;0.20;;;2.00;1.40;;;2.38;100.00;95192.59;646752;212;31472;-76
2022/02/16 01:35:51;;;;;;;0.40;0.40;;;2.00;1.40;;;2.38;100.00;95184.51;619385;222;31820;-76
2022/02/16 01:38:36;;;;;;;0.60;0.50;;;1.90;1.40;;;2.34;100.00;95185.66;647269;216;31490;-76
2022/02/16 01:41:18;;;;;;;0.40;0.30;;;2.00;1.40;;;2.31;100.00;95179.55;646502;212;31508;-75
2022/02/16 01:44:00;;;;;;;0.40;0.40;;;1.90;1.40;;;2.48;100.00;95178.81;647241;216;31495;-76
2022/02/16 01:46:50;;;;;;;0.50;0.40;;;2.20;1.40;;;2.51;100.00;95179.14;647170;212;31591;-75
2022/02/16 01:52:07;;;;;;;0.40;0.20;;;2.20;1.40;;;2.59;100.00;95172.92;646457;216;31486;-75
2022/02/16 01:54:49;;;;;;;0.50;0.30;;;2.30;1.40;;;2.54;100.00;95165.94;647199;216;31566;-76
2022/02/16 01:57:30;;;;;;;0.50;0.40;;;2.20;1.40;;;2.41;100.00;95161.52;647244;216;31476;-76
2022/02/16 02:00:15;;;;;;;0.40;0.30;;;2.00;1.40;;;2.41;100.00;95154.52;646120;216;31702;-76
2022/02/16 02:02:57;;;;;;;0.50;0.30;;;2.10;1.40;;;2.22;100.00;95151.02;619823;222;31829;-77
2022/02/16 02:05:41;;;;;;;0.50;0.40;;;1.80;1.40;;;2.28;100.00;95148.52;646979;216;31522;-76
2022/02/16 02:08:24;;;;;;;0.40;0.30;;;1.90;1.40;;;2.27;100.00;95142.89;646740;212;31647;-75
2022/02/16 02:11:04;;;;;;;0.60;0.30;;;1.90;1.40;;;2.27;100.00;95146.74;647118;212;31873;-76
2022/02/16 02:13:53;;;;;;;0.40;0.20;;;1.90;1.40;;;2.25;100.00;95138.87;647611;216;31525;-76
2022/02/16 02:16:35;;;;;;;0.68;0.30;;;1.90;1.40;;;2.12;100.00;95137.81;647131;212;31578;-76
2022/02/16 02:19:16;;;;;;;0.40;0.40;;;1.70;1.40;;;2.06;100.00;95134.25;647465;216;31681;-76
2022/02/16 02:22:00;;;;;;;0.40;0.30;;;1.60;1.40;;;1.92;100.00;95134.03;646892;212;31485;-76
2022/02/16 02:24:43;;;;;;;1.00;0.40;;;1.50;1.40;;;1.81;100.00;95133.03;620522;226;31921;-75
2022/02/16 02:27:24;;;;;;;0.50;0.37;;;1.30;1.40;;;1.78;100.00;95132.26;647996;216;42097;-76
2022/02/16 02:30:07;;;;;;;0.40;0.20;;;1.40;1.40;;;1.83;100.00;95131.87;649105;212;31485;-76
2022/02/16 02:32:50;;;;;;;0.40;0.30;;;1.50;1.40;;;1.89;100.00;95132.89;632332;221;31719;-76
2022/02/16 02:35:51;;;;;;;0.60;0.40;;;1.50;1.40;;;2.00;100.00;95123.39;647211;216;31611;-76
2022/02/16 02:38:33;;;;;;;0.40;0.40;;;1.70;1.40;;;2.18;100.00;95117.47;646619;212;31508;-76
2022/02/16 02:41:17;;;;;;;0.60;0.60;;;2.00;1.40;;;2.37;100.00;95120.20;646921;216;32051;-76
2022/02/16 02:43:59;;;;;;;0.40;0.20;;;2.10;1.40;;;2.42;100.00;95110.11;648648;212;31499;-76
2022/02/16 02:46:44;;;;;;;0.60;0.60;;;2.10;1.40;;;2.30;100.00;95104.39;646837;216;31517;-76
2022/02/16 02:49:25;;;;;;;0.40;0.30;;;1.90;1.40;;;2.24;100.00;95106.56;647011;216;32685;-76
2022/02/16 02:52:10;;;;;;;0.40;0.30;;;1.90;1.40;;;2.12;100.00;95106.80;648105;212;32750;-76
2022/02/16 02:54:56;;;;;;;0.30;0.20;;;1.70;1.40;;;2.09;100.00;95101.33;646697;215;32059;-75
2022/02/16 02:57:44;;;;;;;0.40;0.22;;;1.70;1.40;;;2.08;100.00;95096.56;647247;216;31525;-76
2022/02/16 03:00:25;;;;;;;0.40;0.30;;;1.70;1.40;;;2.08;100.00;95091.59;647008;212;31464;-76
2022/02/16 03:03:07;;;;;;;0.40;0.30;;;1.70;1.40;;;2.09;100.00;95086.09;647278;216;31496;-76
2022/02/16 03:05:57;;;;;;;0.40;0.40;;;1.80;1.40;;;2.09;100.00;95084.22;646172;216;31697;-76
2022/02/16 03:08:38;;;;;;;0.40;0.30;;;1.70;1.40;;;2.02;100.00;95087.74;645807;216;33478;-76
2022/02/16 03:11:20;;;;;;;0.40;0.20;;;1.70;1.40;;;2.00;100.00;95082.97;619690;222;31965;-76
2022/02/16 03:14:02;;;;;;;0.40;0.37;;;1.70;1.40;;;2.00;100.00;95083.77;648188;213;31499;-76
2022/02/16 03:16:47;;;;;;;0.43;0.30;;;1.60;1.40;;;1.93;100.00;95068.94;647237;212;31825;-75
2022/02/16 03:19:28;;;;;;;0.40;0.30;;;1.60;1.40;;;1.93;100.00;95075.67;647423;212;31463;-76
2022/02/16 03:22:10;;;;;;;0.60;0.40;;;1.50;1.40;;;1.79;100.00;95062.36;648439;216;31518;-75
2022/02/16 03:24:52;;;;;;;0.40;0.30;;;1.40;1.40;;;1.77;100.00;95069.03;646190;216;31525;-76
2022/02/16 03:27:33;;;;;;;0.40;0.20;;;1.40;1.40;;;1.77;100.00;95060.91;648324;216;31501;-76
2022/02/16 03:30:15;;;;;;;0.40;0.30;;;1.40;1.40;;;1.79;100.00;95065.09;648404;212;32020;-77
2022/02/16 03:35:51;;;;;;;0.50;0.40;;;1.40;1.40;;;1.80;100.00;95059.75;619501;226;32224;-76
2022/02/16 03:38:36;;;;;;;0.40;0.20;;;1.40;1.40;;;1.80;100.00;95061.73;648236;216;31475;-76
2022/02/16 03:41:20;;;;;;;0.40;0.35;;;1.40;1.40;;;1.77;100.00;95054.28;647268;216;31501;-76
2022/02/16 03:44:07;;;;;;;0.40;0.30;;;1.30;1.40;;;1.76;100.00;95053.42;619296;226;32026;-76
2022/02/16 03:46:51;;;;;;;0.60;0.60;;;1.40;1.40;;;1.72;100.00;95048.11;647434;216;31521;-75
2022/02/16 03:49:31;;;;;;;0.40;0.30;;;1.30;1.40;;;1.74;100.00;95041.17;648698;216;31532;-76
2022/02/16 03:52:13;;;;;;;0.40;0.30;;;1.40;1.40;;;1.69;100.00;95044.78;620174;222;32223;-75
2022/02/16 03:54:55;;;;;;;0.40;0.40;;;1.30;1.40;;;1.72;100.00;95047.47;647713;216;31493;-76
2022/02/16 03:57:36;;;;;;;0.40;0.30;;;1.40;1.40;;;1.72;100.00;95043.78;646963;216;31485;-77
2022/02/16 04:00:19;;;;;;;1.10;0.40;;;1.40;1.40;;;1.80;100.00;95044.84;620161;226;31945;-76
2022/02/16 04:05:42;;;;;;;0.43;0.40;;;1.40;1.40;;;1.77;100.00;95047.28;647851;216;42465;-75
2022/02/16 04:08:26;;;;;;;0.40;0.20;;;1.40;1.40;;;1.85;100.00;95042.34;647338;216;31639;-76
2022/02/16 04:11:07;;;;;;;0.40;0.30;;;1.50;1.40;;;1.82;100.00;95040.79;646809;216;31492;-76
2022/02/16 04:13:49;;;;;;;0.40;0.40;;;1.50;1.40;;;1.80;100.00;95034.95;619141;223;31812;-76
2022/02/16 04:16:31;;;;;;;0.70;0.40;;;1.40;1.40;;;1.87;100.00;95029.19;647985;216;32396;-75
2022/02/16 04:19:13;;;;;;;0.50;0.40;;;1.50;1.40;;;1.87;100.00;95029.67;619368;225;31978;-75
2022/02/16 04:21:54;;;;;;;0.40;0.30;;;1.40;1.40;;;1.86;100.00;95026.41;647639;212;31510;-76
2022/02/16 04:24:36;;;;;;;0.40;0.22;;;1.50;1.40;;;1.91;100.00;95024.98;647167;216;31489;-76
2022/02/16 04:27:18;;;;;;;0.40;0.20;;;1.50;1.40;;;1.91;100.00;95015.95;647840;216;31833;-76
2022/02/16 04:29:59;;;;;;;0.40;0.30;;;1.50;1.40;;;1.87;100.00;95012.67;647353;212;31482;-76
2022/02/16 04:32:44;;;;;;;0.40;0.35;;;1.50;1.40;;;1.91;100.00;95011.14;646588;212;31485;-76
2022/02/16 04:35:53;;;;;;;0.70;0.68;;;1.50;1.40;;;1.87;100.00;95009.68;647300;216;31515;-76
2022/02/16 04:38:41;;;;;;;0.40;0.30;;;1.50;1.40;;;1.87;100.00;95003.53;646336;216;31604;-76
2022/02/16 04:41:23;;;;;;;0.40;0.23;;;1.50;1.40;;;1.95;100.00;94997.58;647633;216;31575;-76
2022/02/16 04:44:07;;;;;;;0.40;0.37;;;1.50;1.40;;;1.90;100.00;94997.83;647456;216;31510;-76
2022/02/16 04:46:49;;;;;;;0.70;0.30;;;1.50;1.40;;;1.86;100.00;94999.44;646973;216;31483;-75
2022/02/16 04:49:34;;;;;;;0.40;0.30;;;1.40;1.40;;;1.84;100.00;94993.18;647371;216;32039;-76
2022/02/16 04:52:15;;;;;;;0.50;0.40;;;1.40;1.40;;;1.79;100.00;94996.69;647477;216;31756;-76
2022/02/16 04:54:57;;;;;;;0.50;0.40;;;1.40;1.40;;;1.87;100.00;94995.25;620575;225;32019;-76
2022/02/16 04:57:39;;;;;;;0.50;0.40;;;1.50;1.40;;;1.85;100.00;94995.38;648030;216;31505;-75
2022/02/16 05:00:21;;;;;;;0.60;0.30;;;1.50;1.40;;;1.83;100.00;94983.13;647185;216;32112;-75
2022/02/16 05:03:02;;;;;;;1.20;0.70;;;1.50;1.40;;;1.89;100.00;94983.13;647431;216;31595;-75
2022/02/16 05:05:44;;;;;;;0.50;0.25;;;1.50;1.40;;;1.87;100.00;94976.11;645882;212;31509;-76
2022/02/16 05:08:26;;;;;;;0.50;0.37;;;1.50;1.40;;;1.88;100.00;94971.69;646716;212;31518;-76
2022/02/16 05:11:07;;;;;;;0.40;0.40;;;1.50;1.40;;;1.87;100.00;94969.59;646325;216;31545;-75
2022/02/16 05:13:49;;;;;;;0.70;0.43;;;1.50;1.40;;;1.83;100.00;94969.50;618656;226;31861;-76
2022/02/16 05:16:34;;;;;;;0.50;0.30;;;1.50;1.40;;;1.82;100.00;94967.36;648038;216;31999;-76
2022/02/16 05:19:16;;;;;;;0.40;0.30;;;1.40;1.40;;;1.80;100.00;94965.16;647803;216;31833;-75
2022/02/16 05:21:57;;;;;;;0.40;0.40;;;1.40;1.40;;;1.81;100.00;94965.27;647327;212;31488;-76
2022/02/16 05:24:39;;;;;;;0.40;0.30;;;1.40;1.40;;;1.85;100.00;94958.66;646921;216;31466;-76
2022/02/16 05:27:21;;;;;;;0.50;0.30;;;1.40;1.40;;;1.82;100.00;94955.50;647123;212;31552;-76
2022/02/16 05:30:03;;;;;;;0.40;0.30;;;1.40;1.40;;;1.83;100.00;94948.87;646398;212;32268;-77
2022/02/16 05:32:44;;;;;;;0.40;0.30;;;1.50;1.40;;;1.92;100.00;94946.25;642319;216;42146;-76
2022/02/16 05:35:51;;;;;;;0.40;0.20;;;1.50;1.40;;;1.95;100.00;94937.28;646435;216;31459;-76
2022/02/16 05:38:35;;;;;;;0.50;0.30;;;1.50;1.40;;;2.04;100.00;94939.92;619666;226;31885;-75
2022/02/16 05:41:15;;;;;;;0.40;0.30;;;1.50;1.40;;;2.03;100.00;94933.72;646968;212;31620;-76
2022/02/16 05:43:56;;;;;;;0.40;0.30;;;1.60;1.40;;;2.03;100.00;94929.39;645895;212;31609;-75
2022/02/16 05:46:38;;;;;;;0.60;0.47;;;1.60;1.40;;;1.99;100.00;94928.69;646733;216;31683;-75
2022/02/16 05:49:20;;;;;;;0.40;0.20;;;1.60;1.40;;;2.00;100.00;94920.30;648516;212;31478;-75
2022/02/16 05:54:39;;;;;;;0.40;0.30;;;1.70;1.40;;;2.19;100.00;94922.50;645830;212;31492;-75
2022/02/16 05:57:21;;;;;;;0.40;0.30;;;1.70;1.40;;;2.12;100.00;94922.81;646419;216;31770;-75
2022/02/16 06:00:03;;;;;;;0.40;0.30;;;1.80;1.40;;;2.16;100.00;94918.43;646540;212;31511;-75
2022/02/16 06:02:44;;;;;;;0.40;0.30;;;1.80;1.40;;;2.22;100.00;94917.37;648160;212;31503;-75
2022/02/16 06:05:26;;;;;;;0.60;0.40;;;1.80;1.40;;;2.24;100.00;94913.55;647481;216;31464;-75
2022/02/16 06:08:08;;;;;;;0.40;0.30;;;1.90;1.40;;;2.38;100.00;94914.10;619661;225;31856;-76
2022/02/16 06:10:49;;;;;;;0.50;0.50;;;2.00;1.40;;;2.45;100.00;94905.20;647194;216;31505;-75
2022/02/16 06:13:31;;;;;;;0.50;0.40;;;2.10;1.40;;;2.50;100.00;94904.72;619145;226;31836;-76
2022/02/16 06:16:13;;;;;;;1.60;0.30;;;2.10;1.40;;;2.57;100.00;94901.34;642733;217;32038;-76
2022/02/16 06:18:55;;;;;;;0.40;0.32;;;2.20;1.40;;;2.72;100.00;94897.84;647622;216;31550;-75
2022/02/16 06:21:37;;;;;;;0.50;0.30;;;2.30;1.40;;;2.79;100.00;94894.97;646823;212;31519;-75
2022/02/16 06:24:20;;;;;;;0.40;0.30;;;2.40;1.40;;;2.87;100.00;94889.23;647340;212;31564;-75
2022/02/16 06:27:00;;;;;;;0.40;0.40;;;2.50;1.40;;;2.92;100.00;94888.05;646489;216;32166;-76
2022/02/16 06:29:42;;;;;;;0.60;0.30;;;2.50;1.40;;;2.91;100.00;94885.00;647334;213;31611;-75
2022/02/16 06:32:23;;;;;;;0.50;0.50;;;2.50;1.40;;;2.88;100.00;94886.87;646908;216;31873;-75
2022/02/16 06:35:51;;;;;;;0.60;0.30;;;2.50;1.40;;;2.92;100.00;94880.98;647381;216;31482;-74
2022/02/16 06:38:35;;;;;;;0.50;0.40;;;2.50;1.40;;;2.96;100.00;94882.95;647309;216;31509;-75
2022/02/16 06:41:18;;;;;;;0.70;0.60;;;2.60;1.40;;;2.98;100.00;94877.52;647666;216;31536;-75
2022/02/16 06:43:59;;;;;;;0.90;0.40;;;2.50;1.40;;;3.02;100.00;94871.41;619216;226;31923;-75
2022/02/16 06:46:41;;;;;;;0.70;0.50;;;2.60;1.40;;;3.07;100.00;94875.30;648645;212;31397;-75
2022/02/16 06:49:22;;;;;;;0.40;0.20;;;2.60;1.40;;;3.12;100.00;94878.50;646137;216;31619;-76
2022/02/16 06:52:05;;;;;;;0.70;0.60;;;2.60;1.40;;;3.16;100.00;94877.02;646638;212;31490;-75
2022/02/16 06:54:46;;;;;;;0.70;0.40;;;2.80;1.40;;;3.19;100.00;94874.76;646598;212;31499;-75
2022/02/16 06:57:31;;;;;;;0.47;0.37;;;2.70;1.40;;;3.34;100.00;94878.63;619008;222;31837;-75
2022/02/16 07:00:13;;;;;;;0.40;0.30;;;2.80;1.40;;;3.35;100.00;94876.34;647126;216;31758;-76
2022/02/16 07:02:55;;;;;;;0.43;0.30;;;2.90;1.40;;;3.38;100.00;94878.05;646380;216;31499;-76
2022/02/16 07:05:39;;;;;;;0.60;0.40;;;2.90;1.40;;;3.47;100.00;94879.67;620646;226;31985;-76
2022/02/16 07:08:21;;;;;;;0.40;0.30;;;2.90;1.40;;;3.57;100.00;94878.32;647443;212;31473;-76
2022/02/16 07:11:03;;;;;;;1.20;0.40;;;3.00;1.40;;;3.59;100.00;94866.89;647019;216;31504;-76
2022/02/16 07:13:45;;;;;;;0.40;0.20;;;3.00;1.40;;;3.59;100.00;94870.33;647597;212;31506;-76
2022/02/16 07:16:27;;;;;;;0.40;0.30;;;3.00;1.40;;;3.59;100.00;94866.90;647526;216;31466;-76
2022/02/16 07:19:11;;;;;;;0.40;0.30;;;3.00;1.40;;;3.60;100.00;94860.24;646363;216;31553;-76
2022/02/16 07:21:53;;;;;;;0.40;0.30;;;3.00;1.40;;;3.62;100.00;94851.45;648066;212;33148;-75
2022/02/16 07:24:35;;;;;;;0.40;0.40;;;3.10;1.40;;;3.77;100.00;94845.77;647117;212;31605;-78
2022/02/16 07:27:20;;;;;;;0.40;0.20;;;3.10;1.40;;;3.84;100.00;94846.21;646784;216;31503;-78
2022/02/16 07:30:03;;;;;;;0.40;0.40;;;3.20;1.40;;;3.73;100.00;94846.54;646552;212;31499;-78
2022/02/16 07:32:48;;;;;;;0.40;0.30;;;3.20;1.40;;;3.76;100.00;94844.22;647062;216;31500;-78
2022/02/16 07:35:54;;;;;;;0.40;0.20;;;3.20;1.40;;;3.78;100.00;94847.74;620223;226;42475;-77
2022/02/16 07:38:35;;;;;;;0.77;0.47;;;3.30;1.40;;;3.82;100.00;94848.16;647458;212;42118;-77
2022/02/16 07:41:17;;;;;;;0.60;0.20;;;3.30;1.40;;;3.85;100.00;94842.50;647908;216;32126;-79
2022/02/16 07:43:59;;;;;;;0.50;0.40;;;3.30;1.40;;;3.93;100.00;94840.82;646444;216;32542;-78
2022/02/16 07:46:40;;;;;;;0.57;0.40;;;3.40;1.40;;;4.04;100.00;94835.48;647887;216;31484;-79
2022/02/16 07:49:22;;;;;;;0.45;0.30;;;3.50;1.40;;;4.21;100.00;94839.16;646314;216;31506;-78
2022/02/16 07:52:05;;;;;;;0.60;0.50;;;3.60;1.40;;;4.25;100.00;94829.89;647981;216;31545;-78
2022/02/16 07:54:46;;;;;;;0.40;0.20;;;3.70;1.40;;;4.30;100.00;94831.49;647049;216;31738;-78
2022/02/16 07:57:28;;;;;;;0.40;0.25;;;3.70;1.40;;;4.36;100.00;94825.44;646252;216;31782;-77
2022/02/16 08:00:10;;;;;;;0.50;0.30;;;3.70;1.40;;;4.33;100.00;94823.74;648093;212;42124;-78
2022/02/16 08:02:52;;;;;;;0.90;0.40;;;3.80;1.40;;;4.45;100.00;94825.52;620167;226;31903;-78
2022/02/16 08:05:39;;;;;;;0.50;0.37;;;3.80;1.40;;;4.49;100.00;94824.17;646879;216;32009;-77
2022/02/16 08:08:18;;;;;;;0.40;0.30;;;3.90;1.40;;;4.59;100.00;94818.19;648670;212;31539;-79
2022/02/16 08:11:03;;;;;;;0.62;0.28;;;4.00;1.40;;;4.80;100.00;94820.64;642650;215;31600;-78
2022/02/16 08:13:46;;;;;;;0.43;0.32;;;4.10;1.40;;;4.82;100.00;94819.12;646762;216;31510;-78
2022/02/16 08:16:28;;;;;;;0.50;0.50;;;4.20;1.40;;;5.05;100.00;94821.14;619021;226;32137;-78
2022/02/16 08:19:08;;;;;;;0.50;0.40;;;4.40;1.40;;;5.17;100.00;94817.40;648437;212;32059;-78
2022/02/16 08:21:53;;;;;;;0.45;0.28;;;4.60;1.40;;;5.51;100.00;94822.31;619815;225;31880;-78
2022/02/16 08:24:32;;;;;;;1.80;0.30;;;4.90;1.40;;;5.79;100.00;94815.02;646737;216;31500;-78
2022/02/16 08:27:14;;;;;;;0.40;0.30;;;5.20;1.40;;;6.16;97.89;94807.41;647744;216;32088;-77
2022/02/16 08:29:56;;;;;;;0.40;0.40;;;5.40;1.40;;;6.23;100.00;94800.73;648070;216;31681;-78
2022/02/16 08:35:51;;;;;;;0.40;0.30;;;5.50;1.40;;;6.26;93.09;94791.32;619111;222;32379;-78
2022/02/16 08:38:32;;;;;;;0.40;0.20;;;5.40;1.40;;;6.13;94.51;94791.92;621331;225;31818;-78
2022/02/16 08:41:14;;;;;;;1.40;0.40;;;5.50;1.40;;;6.34;93.61;94796.27;643513;215;31741;-77
2022/02/16 08:43:57;;;;;;;0.70;0.40;;;5.70;1.40;;;6.65;95.41;94784.75;647694;216;31547;-78
2022/02/16 08:46:39;;;;;;;0.50;0.40;;;5.90;1.40;;;6.76;96.77;94781.56;647590;212;31610;-77
2022/02/16 08:51:59;;;;;;;0.60;0.50;;;5.90;1.40;;;6.63;97.33;94776.44;647299;216;31755;-75
2022/02/16 08:54:42;;;;;;;0.40;0.30;;;5.80;1.40;;;6.65;93.34;94776.02;646899;216;31556;-76
2022/02/16 08:57:27;;;;;;;0.50;0.37;;;6.00;1.40;;;6.61;91.62;94774.42;620187;222;31823;-78
2022/02/16 09:00:15;;;;;;;0.40;0.30;;;5.90;1.40;;;6.53;89.32;94765.63;619939;226;32213;-77
2022/02/16 09:02:59;;;;;;;0.70;0.43;;;5.90;1.40;;;6.51;88.65;94763.77;620107;226;32087;-78
2022/02/16 09:05:41;;;;;;;0.47;0.30;;;5.90;1.40;;;6.52;90.61;94770.86;616861;229;31884;-78
2022/02/16 09:08:25;;;;;;;0.63;0.43;;;5.90;1.40;;;6.48;91.03;94773.42;620040;226;31988;-77
2022/02/16 09:11:07;;;;;;;0.60;0.40;;;5.90;1.40;;;6.41;93.13;94769.41;620702;225;31882;-78
2022/02/16 09:13:50;;;;;;;0.40;0.30;;;5.80;1.40;;;6.46;94.05;94768.14;647143;216;31531;-78
2022/02/16 09:16:31;;;;;;;0.60;0.50;;;5.90;1.40;;;6.61;93.55;94763.92;647765;216;31706;-77
2022/02/16 09:19:14;;;;;;;0.40;0.20;;;6.00;1.40;;;6.64;93.12;94757.66;646732;212;32213;-78
2022/02/16 09:21:55;;;;;;;0.40;0.22;;;6.00;1.40;;;6.78;92.73;94744.35;648167;212;31530;-76
2022/02/16 09:24:44;;;;;;;0.60;0.30;;;6.10;1.40;;;6.79;93.16;94744.06;645566;212;31514;-77
2022/02/16 09:27:31;;;;;;;1.17;0.40;;;6.20;1.40;;;6.89;89.76;94740.45;646878;216;31521;-78
2022/02/16 09:30:13;;;;;;;0.60;0.30;;;6.30;1.40;;;7.08;92.26;94743.67;647775;216;31481;-78
2022/02/16 09:32:54;;;;;;;0.40;0.20;;;6.40;1.40;;;7.09;91.21;94745.91;643485;216;31516;-78
2022/02/16 09:35:51;;;;;;;0.40;0.20;;;6.40;1.40;;;7.12;90.56;94737.34;647550;216;31532;-78
2022/02/16 09:38:36;;;;;;;0.60;0.50;;;6.50;1.40;;;7.19;91.42;94729.64;647236;216;31531;-78
2022/02/16 09:41:18;;;;;;;1.10;0.40;;;6.50;1.40;;;7.28;91.17;94718.28;647768;216;32228;-78
2022/02/16 09:44:00;;;;;;;3.50;0.50;;;6.60;1.40;;;7.51;91.12;94719.80;646486;216;31760;-77
2022/02/16 09:46:41;;;;;;;0.40;0.20;;;6.80;1.40;;;7.46;91.74;94716.41;646491;216;31503;-78
2022/02/16 09:49:23;;;;;;;0.40;0.30;;;6.80;1.40;;;7.63;92.72;94712.67;620353;226;31913;-79
2022/02/16 09:52:05;;;;;;;0.43;0.30;;;6.90;1.40;;;7.68;90.44;94711.09;647415;216;31519;-76
2022/02/16 09:54:47;;;;;;;0.53;0.30;;;6.90;1.40;;;7.58;93.42;94705.95;620123;226;32020;-77
2022/02/16 09:57:29;;;;;;;0.40;0.30;;;6.80;1.40;;;7.47;95.58;94698.11;620990;222;31864;-78
2022/02/16 10:00:15;;;;;;;0.40;0.30;;;6.80;1.40;;;7.43;94.74;94691.35;646844;216;31510;-79
2022/02/16 10:05:32;;;;;;;0.50;0.40;;;7.00;1.40;;;7.80;99.19;94685.88;618678;225;31851;-78
2022/02/16 10:08:15;;;;;;;0.50;0.30;;;7.20;1.40;;;8.16;95.89;94686.09;619889;222;31812;-77
2022/02/16 10:11:00;;;;;;;0.40;0.30;;;7.50;1.40;;;8.27;95.61;94678.92;646761;216;31477;-78
2022/02/16 10:13:42;;;;;;;0.50;0.40;;;7.60;1.40;;;8.46;96.08;94677.27;648491;216;31641;-78
2022/02/16 10:16:31;;;;;;;0.40;0.30;;;7.70;1.40;;;8.63;94.48;94667.26;645896;216;31512;-78
2022/02/16 10:19:12;;;;;;;0.40;0.20;;;7.80;1.40;;;8.72;94.77;94668.47;647623;212;31495;-78
2022/02/16 10:22:04;;;;;;;0.80;0.30;;;8.00;1.40;;;8.82;93.79;94663.31;647735;212;31541;-78
2022/02/16 10:24:48;;;;;;;0.60;0.30;;;8.30;1.40;;;9.23;94.30;94672.85;646167;212;31479;-78
2022/02/16 10:27:30;;;;;;;0.40;0.20;;;8.60;1.40;;;9.58;96.56;94655.95;641718;214;31474;-79
2022/02/16 10:30:12;;;;;;;0.90;0.40;;;9.10;1.40;;;10.14;91.16;94658.48;619758;222;31899;-78
2022/02/16 10:32:54;;;;;;;0.70;0.40;;;9.50;1.40;;;9.88;93.22;94655.77;620608;225;32060;-78
2022/02/16 10:36:06;;;;;;;0.43;0.30;;;9.00;1.40;;;9.17;95.28;94653.33;646186;216;31604;-78
2022/02/16 10:38:57;;;;;;;0.40;0.20;;;8.40;1.40;;;8.67;100.00;94657.17;619028;222;31835;-78
2022/02/16 10:41:43;;;;;;;0.40;0.20;;;8.00;1.40;;;8.52;100.00;94661.01;648094;216;31982;-78
2022/02/16 10:44:26;;;;;;;0.50;0.20;;;7.80;1.40;;;8.33;100.00;94653.89;647093;212;42178;-78
2022/02/16 10:47:07;;;;;;;0.43;0.30;;;7.80;1.40;;;8.18;100.00;94676.70;647054;212;31502;-78
2022/02/16 10:49:52;;;;;;;0.40;0.30;;;7.70;1.40;;;8.21;100.00;94654.67;647666;216;31498;-77
2022/02/16 10:52:34;;;;;;;0.60;0.60;;;7.80;1.40;;;8.44;100.00;94645.66;647591;216;31677;-78
2022/02/16 10:57:49;;;;;;;0.50;0.50;;;8.00;1.40;;;8.37;100.00;94655.61;620503;222;31976;-77
2022/02/16 11:00:31;;;;;;;0.43;0.22;;;7.90;1.40;;;8.50;100.00;94649.81;647860;216;31495;-78
2022/02/16 11:05:47;;;;;;;0.40;0.20;;;8.10;1.40;;;8.63;100.00;94642.66;645587;212;31675;-78
2022/02/16 11:08:28;;;;;;;0.40;0.20;;;8.10;1.40;;;8.71;100.00;94654.94;648162;212;32008;-78
2022/02/16 11:11:10;;;;;;;0.60;0.20;;;8.20;1.40;;;8.70;100.00;94653.66;619484;222;32334;-78
2022/02/16 11:13:52;;;;;;;0.40;0.20;;;8.20;1.40;;;8.74;100.00;94641.64;647460;216;31555;-78
2022/02/16 11:16:33;;;;;;;0.40;0.20;;;8.20;1.40;;;8.65;100.00;94653.74;620702;226;31831;-77
2022/02/16 11:19:23;;;;;;;0.50;0.20;;;8.10;1.40;;;8.59;100.00;94645.39;619959;226;31912;-77
2022/02/16 11:24:41;;;;;;;0.40;0.20;;;8.10;1.40;;;8.58;100.00;94632.67;647176;216;31498;-77
2022/02/16 11:27:31;;;;;;;0.40;0.20;;;8.20;1.40;;;8.55;100.00;94637.75;647375;212;31524;-77
2022/02/16 11:30:12;;;;;;;0.40;0.20;;;8.20;1.40;;;8.62;100.00;94624.92;648383;216;31480;-78
2022/02/16 11:32:53;;;;;;;0.40;0.20;;;8.20;1.40;;;8.61;100.00;94637.42;647800;212;31912;-78
2022/02/16 11:35:57;;;;;;;0.40;0.20;;;8.10;1.40;;;8.60;100.00;94642.61;646085;212;31501;-77
2022/02/16 11:38:41;;;;;;;0.50;0.25;;;8.20;1.40;;;8.36;100.00;94636.38;647121;212;31626;-77
2022/02/16 11:41:23;;;;;;;0.40;0.20;;;8.10;1.40;;;8.19;100.00;94623.23;647486;216;31511;-78
2022/02/16 11:44:08;;;;;;;0.40;0.30;;;7.90;1.40;;;8.17;100.00;94630.88;620899;222;32268;-77
2022/02/16 11:46:54;;;;;;;0.40;0.20;;;7.90;1.40;;;8.09;100.00;94670.02;646438;216;31855;-77
2022/02/16 11:49:45;;;;;;;0.40;0.20;;;7.90;1.40;;;8.01;100.00;94615.05;645426;212;31550;-77
2022/02/16 11:52:34;;;;;;;0.40;0.20;;;7.80;1.40;;;7.83;100.00;94618.48;619858;226;31824;-77
2022/02/16 11:55:22;;;;;;;0.40;0.20;;;7.70;1.40;;;7.84;100.00;94609.23;646350;216;31533;-76
2022/02/16 11:58:18;;;;;;;0.40;0.20;;;7.60;1.40;;;7.94;100.00;94590.91;645384;216;31655;-76
2022/02/16 12:01:00;;;;;;;0.40;0.20;;;7.80;1.40;;;8.10;100.00;94604.61;648024;216;31502;-77
2022/02/16 12:03:49;;;;;;;0.40;0.20;;;7.90;1.40;;;8.13;100.00;94609.98;646977;216;42124;-77
2022/02/16 12:06:31;;;;;;;0.40;0.20;;;8.00;1.40;;;8.18;100.00;94584.98;641623;216;32329;-76
2022/02/16 12:09:12;;;;;;;0.40;0.20;;;8.10;1.40;;;8.24;100.00;94585.73;646834;216;31484;-76
2022/02/16 12:11:54;;;;;;;0.40;0.20;;;8.20;1.40;;;8.25;100.00;94579.79;646548;216;31597;-76